Time;durP1;ratioP1;P1;durP2;ratioP2;P2;SDS_P1;SDS_P2;PMS_P1;PMS_P2;Temp;Humidity;BMP_temperature;BMP_pressure;BME280_temperature;BME280_humidity;BME280_pressure;Samples;Min_cycle;Max_cycle;Signal;HPM_P1;HPM_P2
2023/10/27 00:00:14;;;;;;;8.70;5.00;;;;;;;;;;6240526;28;20522;-67
2023/10/27 00:03:16;;;;;;;9.70;5.93;;;;;;;;;;6210414;28;20042;-68
2023/10/27 00:06:18;;;;;;;12.98;8.73;;;;;;;;;;6240508;28;20452;-68
2023/10/27 00:09:20;;;;;;;9.38;5.75;;;;;;;;;;6234846;28;20050;-69
2023/10/27 00:12:22;;;;;;;17.52;7.28;;;;;;;;;;6239149;28;20073;-69
2023/10/27 00:15:24;;;;;;;18.05;5.50;;;;;;;;;;6239059;28;20123;-68
2023/10/27 00:18:30;;;;;;;75.50;41.78;;;;;;;;;;6240276;28;20104;-69
2023/10/27 00:21:32;;;;;;;32.03;13.98;;;;;;;;;;6238830;28;20410;-69
2023/10/27 00:24:34;;;;;;;16.00;8.73;;;;;;;;;;6221278;28;20048;-66
2023/10/27 00:27:36;;;;;;;14.38;9.05;;;;;;;;;;6238960;28;20045;-66
2023/10/27 00:30:39;;;;;;;12.55;7.20;;;;;;;;;;6238170;28;20052;-67
2023/10/27 00:33:41;;;;;;;13.52;6.82;;;;;;;;;;6237314;28;20545;-69
2023/10/27 00:36:43;;;;;;;12.50;6.50;;;;;;;;;;6217731;28;20122;-67
2023/10/27 00:39:45;;;;;;;12.43;6.63;;;;;;;;;;6239010;28;20045;-69
2023/10/27 00:42:47;;;;;;;10.32;5.53;;;;;;;;;;6238090;28;20049;-69
2023/10/27 00:45:50;;;;;;;8.70;5.63;;;;;;;;;;6238289;28;20146;-69
2023/10/27 00:48:52;;;;;;;15.27;7.22;;;;;;;;;;6238379;28;20038;-69
2023/10/27 00:51:54;;;;;;;7.40;5.38;;;;;;;;;;6238358;28;20041;-69
2023/10/27 00:54:56;;;;;;;9.07;5.07;;;;;;;;;;6237895;28;20053;-68
2023/10/27 00:57:58;;;;;;;9.77;5.30;;;;;;;;;;6238643;28;20120;-69
2023/10/27 01:01:01;;;;;;;8.73;5.60;;;;;;;;;;6238474;28;20608;-69
2023/10/27 01:04:04;;;;;;;6.72;4.85;;;;;;;;;;6238269;28;20057;-69
2023/10/27 01:07:06;;;;;;;7.95;3.25;;;;;;;;;;6237712;28;20293;-69
2023/10/27 01:10:09;;;;;;;9.38;4.43;;;;;;;;;;6220080;28;20560;-68
2023/10/27 01:13:11;;;;;;;12.90;6.60;;;;;;;;;;6215013;28;20527;-69
2023/10/27 01:16:13;;;;;;;10.88;7.78;;;;;;;;;;6237411;28;20541;-69
2023/10/27 01:19:15;;;;;;;7.55;4.70;;;;;;;;;;6237632;28;20048;-69
2023/10/27 01:22:18;;;;;;;8.35;7.55;;;;;;;;;;6219318;28;20058;-69
2023/10/27 01:25:20;;;;;;;10.23;5.15;;;;;;;;;;6227850;28;20049;-69
2023/10/27 01:28:22;;;;;;;10.55;6.03;;;;;;;;;;6237665;28;20041;-69
2023/10/27 01:31:24;;;;;;;12.10;6.35;;;;;;;;;;6197671;28;20127;-70
2023/10/27 01:34:26;;;;;;;8.75;5.88;;;;;;;;;;6237552;28;20042;-69
2023/10/27 01:37:28;;;;;;;14.25;6.10;;;;;;;;;;6237113;28;20847;-69
2023/10/27 01:40:30;;;;;;;8.07;5.18;;;;;;;;;;6219371;28;20042;-69
2023/10/27 01:43:32;;;;;;;11.45;5.82;;;;;;;;;;6216265;28;20053;-69
2023/10/27 01:46:34;;;;;;;10.88;5.43;;;;;;;;;;6236484;28;20753;-69
2023/10/27 01:49:36;;;;;;;7.35;5.32;;;;;;;;;;6237475;28;20049;-66
2023/10/27 01:52:39;;;;;;;10.85;7.50;;;;;;;;;;6215014;28;20128;-69
2023/10/27 01:55:42;;;;;;;7.30;4.53;;;;;;;;;;6236877;28;20164;-68
2023/10/27 01:58:44;;;;;;;6.85;5.43;;;;;;;;;;6236893;28;20041;-68
2023/10/27 02:01:46;;;;;;;7.80;5.03;;;;;;;;;;6236975;28;20195;-68
2023/10/27 02:04:48;;;;;;;8.73;6.07;;;;;;;;;;6218604;28;20079;-68
2023/10/27 02:07:50;;;;;;;8.32;6.88;;;;;;;;;;6213448;28;20117;-69
2023/10/27 02:10:53;;;;;;;9.18;5.68;;;;;;;;;;6236598;28;20127;-69
2023/10/27 02:13:55;;;;;;;8.73;5.95;;;;;;;;;;6212163;28;20052;-68
2023/10/27 02:16:57;;;;;;;8.75;5.00;;;;;;;;;;6222924;28;20041;-68
2023/10/27 02:19:59;;;;;;;7.80;5.03;;;;;;;;;;6216077;28;20077;-68
2023/10/27 02:23:01;;;;;;;8.27;4.55;;;;;;;;;;6217854;28;20895;-68
2023/10/27 02:26:03;;;;;;;11.73;5.55;;;;;;;;;;6230320;28;20059;-68
2023/10/27 02:29:05;;;;;;;6.68;4.53;;;;;;;;;;6234893;28;20057;-68
2023/10/27 02:32:08;;;;;;;12.63;6.82;;;;;;;;;;6224432;28;20059;-69
2023/10/27 02:35:10;;;;;;;12.93;6.20;;;;;;;;;;6225426;28;20041;-68
2023/10/27 02:38:12;;;;;;;14.50;7.45;;;;;;;;;;6231601;28;20044;-68
2023/10/27 02:41:14;;;;;;;11.05;5.57;;;;;;;;;;6236216;28;20065;-69
2023/10/27 02:44:16;;;;;;;8.10;3.80;;;;;;;;;;6229242;28;20725;-68
2023/10/27 02:47:18;;;;;;;9.07;5.97;;;;;;;;;;6236263;28;20880;-68
2023/10/27 02:50:20;;;;;;;8.07;5.47;;;;;;;;;;6236533;28;20061;-69
2023/10/27 02:53:22;;;;;;;7.07;4.85;;;;;;;;;;6213432;28;20584;-68
2023/10/27 02:56:24;;;;;;;6.90;6.07;;;;;;;;;;6222933;28;20073;-68
2023/10/27 02:59:26;;;;;;;8.60;5.63;;;;;;;;;;6241072;28;20073;-68
2023/10/27 03:02:28;;;;;;;7.07;4.90;;;;;;;;;;6221291;28;20049;-68
2023/10/27 03:05:31;;;;;;;7.07;6.10;;;;;;;;;;6240142;28;20053;-68
2023/10/27 03:08:33;;;;;;;8.02;5.28;;;;;;;;;;6220326;28;20099;-68
2023/10/27 03:11:35;;;;;;;10.30;5.70;;;;;;;;;;6223329;28;20191;-68
2023/10/27 03:14:37;;;;;;;13.10;5.68;;;;;;;;;;6239461;28;20053;-68
2023/10/27 03:17:40;;;;;;;6.80;5.50;;;;;;;;;;6238228;28;20073;-68
2023/10/27 03:20:42;;;;;;;9.20;5.50;;;;;;;;;;6216948;28;20054;-68
2023/10/27 03:23:45;;;;;;;14.23;4.90;;;;;;;;;;6240331;28;20079;-68
2023/10/27 03:26:47;;;;;;;8.68;5.72;;;;;;;;;;6240678;28;20077;-68
2023/10/27 03:29:49;;;;;;;7.68;3.65;;;;;;;;;;6239790;28;20228;-68
2023/10/27 03:32:50;;;;;;;8.25;4.57;;;;;;;;;;6240267;28;20060;-69
2023/10/27 03:35:53;;;;;;;10.07;5.63;;;;;;;;;;6234149;28;20049;-68
2023/10/27 03:38:55;;;;;;;8.65;5.22;;;;;;;;;;6239591;28;20042;-69
2023/10/27 03:41:57;;;;;;;11.05;5.53;;;;;;;;;;6240393;28;20796;-68
2023/10/27 03:44:58;;;;;;;9.93;5.50;;;;;;;;;;6238017;28;20053;-69
2023/10/27 03:48:02;;;;;;;8.40;7.30;;;;;;;;;;6239201;28;20589;-68
2023/10/27 03:51:08;;;;;;;9.38;5.25;;;;;;;;;;6238082;28;20103;-69
2023/10/27 03:54:10;;;;;;;10.98;5.25;;;;;;;;;;6238666;28;20776;-69
2023/10/27 03:57:13;;;;;;;11.43;5.10;;;;;;;;;;6237476;28;20053;-68
2023/10/27 04:00:15;;;;;;;6.95;4.72;;;;;;;;;;6229941;28;20042;-68
2023/10/27 04:03:17;;;;;;;10.20;4.93;;;;;;;;;;6219962;28;20140;-69
2023/10/27 04:06:20;;;;;;;8.95;5.80;;;;;;;;;;6225726;28;20049;-69
2023/10/27 04:09:22;;;;;;;9.88;5.60;;;;;;;;;;6232545;28;20057;-69
2023/10/27 04:12:26;;;;;;;10.35;6.68;;;;;;;;;;6220976;28;20518;-69
2023/10/27 04:15:28;;;;;;;13.25;6.50;;;;;;;;;;6238339;28;20816;-68
2023/10/27 04:18:30;;;;;;;10.70;4.95;;;;;;;;;;6238283;28;20046;-69
2023/10/27 04:21:32;;;;;;;9.20;5.97;;;;;;;;;;6238507;28;20128;-68
2023/10/27 04:24:36;;;;;;;9.05;6.20;;;;;;;;;;6237604;28;20053;-69
2023/10/27 04:27:38;;;;;;;9.57;6.28;;;;;;;;;;6225208;28;20053;-72
2023/10/27 04:30:40;;;;;;;14.05;4.97;;;;;;;;;;6245321;28;20048;-66
2023/10/27 04:33:43;;;;;;;7.55;5.20;;;;;;;;;;6237679;28;20041;-64
2023/10/27 04:36:45;;;;;;;8.65;4.68;;;;;;;;;;6237657;28;20053;-63
2023/10/27 04:39:47;;;;;;;11.55;4.55;;;;;;;;;;6214826;28;20038;-64
2023/10/27 04:42:49;;;;;;;7.93;5.47;;;;;;;;;;6236376;28;20236;-66
2023/10/27 04:45:51;;;;;;;9.70;5.00;;;;;;;;;;6236536;28;20045;-68
2023/10/27 04:48:53;;;;;;;6.82;5.47;;;;;;;;;;6235564;28;20479;-73
2023/10/27 04:51:55;;;;;;;8.50;5.18;;;;;;;;;;6210550;28;20045;-67
2023/10/27 04:54:58;;;;;;;9.57;4.20;;;;;;;;;;6238133;28;20459;-67
2023/10/27 04:58:00;;;;;;;9.02;5.30;;;;;;;;;;6238374;28;20919;-67
2023/10/27 05:01:03;;;;;;;9.43;7.50;;;;;;;;;;6237187;28;20041;-66
2023/10/27 05:04:05;;;;;;;10.35;5.55;;;;;;;;;;6238567;28;20584;-67
2023/10/27 05:07:07;;;;;;;11.20;5.97;;;;;;;;;;6237449;28;20045;-67
2023/10/27 05:10:09;;;;;;;8.40;3.67;;;;;;;;;;6237274;28;20549;-67
2023/10/27 05:13:11;;;;;;;9.52;5.30;;;;;;;;;;6236555;28;20533;-67
2023/10/27 05:16:14;;;;;;;8.20;4.70;;;;;;;;;;6236922;28;20049;-67
2023/10/27 05:19:16;;;;;;;8.32;6.78;;;;;;;;;;6234289;28;20046;-67
2023/10/27 05:22:18;;;;;;;9.00;6.72;;;;;;;;;;6230265;28;20646;-67
2023/10/27 05:25:20;;;;;;;6.88;4.78;;;;;;;;;;6234283;28;20076;-67
2023/10/27 05:28:23;;;;;;;8.63;5.43;;;;;;;;;;6237623;28;20827;-67
2023/10/27 05:31:26;;;;;;;13.80;4.82;;;;;;;;;;6231721;28;20046;-67
2023/10/27 05:34:28;;;;;;;8.18;6.72;;;;;;;;;;6236528;28;20198;-67
2023/10/27 05:37:33;;;;;;;10.75;5.07;;;;;;;;;;6229440;28;20049;-67
2023/10/27 05:40:35;;;;;;;18.30;4.05;;;;;;;;;;6228715;28;20046;-67
2023/10/27 05:43:37;;;;;;;7.05;4.18;;;;;;;;;;6235306;28;20425;-67
2023/10/27 05:46:39;;;;;;;8.75;4.28;;;;;;;;;;6236203;28;20662;-67
2023/10/27 05:49:41;;;;;;;5.85;4.03;;;;;;;;;;6236318;28;20526;-67
2023/10/27 05:52:43;;;;;;;7.07;4.13;;;;;;;;;;6233168;28;20060;-65
2023/10/27 05:55:45;;;;;;;7.13;4.60;;;;;;;;;;6237002;28;20057;-68
2023/10/27 05:58:47;;;;;;;8.30;2.58;;;;;;;;;;6232118;28;20088;-69
2023/10/27 06:01:53;;;;;;;8.65;3.28;;;;;;;;;;6235742;28;20566;-65
2023/10/27 06:05:13;;;;;;;5.43;3.60;;;;;;;;;;6223243;28;20092;-64
2023/10/27 06:08:15;;;;;;;11.30;4.43;;;;;;;;;;6235663;28;20045;-65
2023/10/27 06:11:18;;;;;;;7.53;4.55;;;;;;;;;;6235217;28;20056;-65
2023/10/27 06:14:20;;;;;;;4.90;4.05;;;;;;;;;;6233691;28;20548;-66
2023/10/27 06:17:22;;;;;;;11.68;5.20;;;;;;;;;;6234890;28;20063;-65
2023/10/27 06:20:25;;;;;;;6.25;4.32;;;;;;;;;;6236201;28;20049;-66
2023/10/27 06:23:27;;;;;;;6.05;4.75;;;;;;;;;;6233958;28;20053;-66
2023/10/27 06:26:29;;;;;;;6.70;4.10;;;;;;;;;;6235989;28;20061;-66
2023/10/27 06:29:31;;;;;;;6.70;4.82;;;;;;;;;;6235008;28;20042;-66
2023/10/27 06:32:33;;;;;;;8.50;4.07;;;;;;;;;;6235856;28;20048;-66
2023/10/27 06:35:35;;;;;;;9.20;3.42;;;;;;;;;;6234423;28;20706;-65
2023/10/27 06:38:37;;;;;;;7.00;5.10;;;;;;;;;;6231986;28;20730;-67
2023/10/27 06:41:39;;;;;;;8.82;4.32;;;;;;;;;;6232646;28;20049;-64
2023/10/27 06:44:41;;;;;;;6.53;1.95;;;;;;;;;;6232946;28;20054;-66
2023/10/27 06:47:43;;;;;;;7.97;3.65;;;;;;;;;;6232882;28;20041;-66
2023/10/27 06:50:45;;;;;;;4.00;1.77;;;;;;;;;;6233807;28;20187;-66
2023/10/27 06:53:47;;;;;;;6.05;4.40;;;;;;;;;;6235940;28;20051;-66
2023/10/27 06:56:50;;;;;;;7.50;3.42;;;;;;;;;;6235312;28;20060;-66
2023/10/27 06:59:55;;;;;;;7.93;3.25;;;;;;;;;;6235900;28;20056;-63
2023/10/27 07:02:58;;;;;;;8.73;3.05;;;;;;;;;;6235503;28;20060;-65
2023/10/27 07:06:03;;;;;;;4.78;3.25;;;;;;;;;;6235241;28;20124;-64
2023/10/27 07:09:05;;;;;;;7.30;3.40;;;;;;;;;;6235147;28;20144;-65
2023/10/27 07:12:08;;;;;;;6.13;3.50;;;;;;;;;;6228321;28;20537;-65
2023/10/27 07:15:11;;;;;;;5.43;4.05;;;;;;;;;;6235353;28;20047;-65
2023/10/27 07:18:13;;;;;;;7.07;1.73;;;;;;;;;;6233795;28;20045;-65
2023/10/27 07:21:15;;;;;;;3.85;1.40;;;;;;;;;;6231066;28;20124;-65
2023/10/27 07:24:17;;;;;;;10.30;3.42;;;;;;;;;;6234129;28;20050;-65
2023/10/27 07:27:19;;;;;;;7.68;2.28;;;;;;;;;;6234174;28;20050;-69
2023/10/27 07:30:21;;;;;;;8.02;1.50;;;;;;;;;;6225071;28;20132;-64
2023/10/27 07:33:23;;;;;;;10.18;3.25;;;;;;;;;;6235138;28;20049;-65
2023/10/27 07:36:26;;;;;;;7.80;2.35;;;;;;;;;;6232900;28;20042;-63
2023/10/27 07:39:28;;;;;;;6.50;1.70;;;;;;;;;;6230670;28;20048;-64
2023/10/27 07:42:31;;;;;;;5.82;1.20;;;;;;;;;;6235107;28;20095;-66
2023/10/27 07:45:33;;;;;;;5.00;1.38;;;;;;;;;;6233145;28;20042;-68
2023/10/27 07:48:35;;;;;;;4.35;2.55;;;;;;;;;;6218049;28;20045;-66
2023/10/27 07:51:38;;;;;;;4.75;1.55;;;;;;;;;;6233111;28;20033;-65
2023/10/27 07:54:40;;;;;;;6.68;1.30;;;;;;;;;;6236359;28;20151;-65
2023/10/27 07:57:42;;;;;;;3.30;1.88;;;;;;;;;;6231907;28;20105;-65
2023/10/27 08:00:44;;;;;;;5.43;1.42;;;;;;;;;;6239699;28;20052;-64
2023/10/27 08:03:46;;;;;;;5.28;1.85;;;;;;;;;;6237084;28;20051;-66
2023/10/27 08:06:48;;;;;;;7.25;1.25;;;;;;;;;;6219131;28;20456;-65
2023/10/27 08:09:50;;;;;;;4.28;1.13;;;;;;;;;;6233771;28;20091;-67
2023/10/27 08:12:52;;;;;;;3.97;2.03;;;;;;;;;;6238375;28;20048;-66
2023/10/27 08:15:54;;;;;;;4.55;1.75;;;;;;;;;;6223855;28;20049;-66
2023/10/27 08:18:57;;;;;;;7.78;1.67;;;;;;;;;;6236365;28;20141;-67
2023/10/27 08:21:59;;;;;;;7.10;1.08;;;;;;;;;;6236941;28;20126;-68
2023/10/27 08:25:02;;;;;;;5.13;2.65;;;;;;;;;;6236295;28;20049;-67
2023/10/27 08:28:05;;;;;;;3.55;1.98;;;;;;;;;;6222739;28;20045;-67
2023/10/27 08:31:07;;;;;;;5.63;4.28;;;;;;;;;;6230315;28;20045;-68
2023/10/27 08:34:13;;;;;;;7.63;2.63;;;;;;;;;;6232343;28;20049;-67
2023/10/27 08:37:16;;;;;;;5.28;3.28;;;;;;;;;;6237144;28;20049;-67
2023/10/27 08:40:18;;;;;;;7.47;1.25;;;;;;;;;;6238537;28;20427;-68
2023/10/27 08:43:22;;;;;;;4.93;3.25;;;;;;;;;;6227604;28;20678;-68
2023/10/27 08:46:26;;;;;;;4.28;2.80;;;;;;;;;;6235536;28;20061;-67
2023/10/27 08:49:28;;;;;;;7.75;2.50;;;;;;;;;;6215356;28;20048;-68
2023/10/27 08:52:32;;;;;;;5.05;1.83;;;;;;;;;;6237928;28;20041;-68
2023/10/27 08:55:34;;;;;;;5.15;2.47;;;;;;;;;;6237635;28;20529;-68
2023/10/27 08:58:36;;;;;;;4.13;1.42;;;;;;;;;;6235233;28;20118;-68
2023/10/27 09:01:38;;;;;;;4.25;1.52;;;;;;;;;;6236643;28;20049;-68
2023/10/27 09:04:43;;;;;;;4.97;2.53;;;;;;;;;;6216741;28;20052;-68
2023/10/27 09:07:46;;;;;;;6.78;1.63;;;;;;;;;;6232284;28;20041;-68
2023/10/27 09:10:48;;;;;;;4.10;2.53;;;;;;;;;;6235349;28;20041;-68
2023/10/27 09:13:50;;;;;;;5.82;1.55;;;;;;;;;;6219865;28;20430;-68
2023/10/27 09:17:04;;;;;;;4.18;2.22;;;;;;;;;;6236304;28;20595;-68
2023/10/27 09:20:06;;;;;;;5.05;1.60;;;;;;;;;;6235134;28;20049;-67
2023/10/27 09:23:08;;;;;;;5.05;1.27;;;;;;;;;;6234274;28;20687;-66
2023/10/27 09:26:10;;;;;;;4.55;1.25;;;;;;;;;;6234436;28;20136;-66
2023/10/27 09:29:13;;;;;;;4.50;0.98;;;;;;;;;;6235593;28;20049;-66
2023/10/27 09:32:27;;;;;;;4.20;2.80;;;;;;;;;;6227175;28;20839;-67
2023/10/27 09:35:29;;;;;;;7.22;1.42;;;;;;;;;;6235278;28;20473;-66
2023/10/27 09:38:31;;;;;;;5.35;2.75;;;;;;;;;;6211380;28;20068;-66
2023/10/27 09:41:34;;;;;;;4.78;2.75;;;;;;;;;;6220675;28;20446;-67
2023/10/27 09:44:45;;;;;;;6.55;2.47;;;;;;;;;;6221166;28;20080;-66
2023/10/27 09:47:49;;;;;;;5.32;1.13;;;;;;;;;;6211938;28;20045;-66
2023/10/27 09:50:59;;;;;;;4.20;1.52;;;;;;;;;;6227708;28;20042;-66
2023/10/27 09:54:01;;;;;;;7.10;2.15;;;;;;;;;;6212681;28;20159;-66
2023/10/27 09:57:04;;;;;;;3.88;2.35;;;;;;;;;;6228795;28;20045;-66
2023/10/27 10:00:08;;;;;;;9.40;2.75;;;;;;;;;;6232056;28;20050;-66
2023/10/27 10:03:13;;;;;;;6.03;3.25;;;;;;;;;;6191410;28;20107;-67
2023/10/27 10:06:23;;;;;;;9.05;3.10;;;;;;;;;;6234486;28;20049;-67
2023/10/27 10:09:40;;;;;;;5.28;2.42;;;;;;;;;;6232010;28;20178;-66
2023/10/27 10:13:12;;;;;;;4.25;1.13;;;;;;;;;;6232429;28;20049;-66
2023/10/27 10:16:14;;;;;;;7.43;3.17;;;;;;;;;;6229915;28;20053;-67
2023/10/27 10:19:45;;;;;;;6.15;1.88;;;;;;;;;;6221796;28;20041;-66
2023/10/27 10:22:48;;;;;;;3.22;1.77;;;;;;;;;;6230314;28;20045;-67
2023/10/27 10:25:57;;;;;;;6.55;0.90;;;;;;;;;;6228910;28;20056;-66
2023/10/27 10:29:30;;;;;;;4.85;1.27;;;;;;;;;;6212236;28;20510;-66
2023/10/27 10:32:39;;;;;;;6.55;3.63;;;;;;;;;;6231868;28;20517;-66
2023/10/27 10:35:42;;;;;;;5.18;2.78;;;;;;;;;;6231687;28;20049;-64
2023/10/27 10:39:10;;;;;;;6.18;1.85;;;;;;;;;;6235740;28;20139;-64
2023/10/27 10:42:12;;;;;;;5.85;2.78;;;;;;;;;;6232627;28;20080;-66
2023/10/27 10:45:14;;;;;;;6.95;2.88;;;;;;;;;;6229943;28;20045;-69
2023/10/27 10:48:19;;;;;;;11.98;5.97;;;;;;;;;;6219283;28;20073;-69
2023/10/27 10:51:36;;;;;;;5.13;2.67;;;;;;;;;;6208438;28;20046;-69
2023/10/27 10:54:38;;;;;;;3.45;1.35;;;;;;;;;;6224491;28;20607;-69
2023/10/27 10:57:40;;;;;;;4.65;1.58;;;;;;;;;;6232216;28;20053;-69
2023/10/27 11:00:43;;;;;;;8.43;4.55;;;;;;;;;;6199508;28;20050;-69
2023/10/27 11:03:54;;;;;;;4.95;1.15;;;;;;;;;;6233969;28;20647;-69
2023/10/27 11:07:03;;;;;;;3.60;0.77;;;;;;;;;;6235190;28;20429;-69
2023/10/27 11:10:21;;;;;;;4.45;1.95;;;;;;;;;;6236152;28;20461;-69
2023/10/27 11:13:23;;;;;;;3.97;2.30;;;;;;;;;;6234665;28;20056;-69
2023/10/27 11:16:26;;;;;;;5.40;2.97;;;;;;;;;;6231598;28;20199;-68
2023/10/27 11:19:28;;;;;;;4.13;1.20;;;;;;;;;;6231231;28;20054;-68
2023/10/27 11:22:30;;;;;;;4.40;1.42;;;;;;;;;;6240523;28;20425;-69
2023/10/27 11:25:32;;;;;;;4.97;1.77;;;;;;;;;;6241272;28;20049;-68
2023/10/27 11:28:38;;;;;;;5.38;1.92;;;;;;;;;;6240483;28;20537;-68
2023/10/27 11:31:42;;;;;;;3.47;1.88;;;;;;;;;;6238675;28;20033;-69
2023/10/27 11:34:54;;;;;;;3.63;2.17;;;;;;;;;;6239895;28;20049;-69
2023/10/27 11:38:02;;;;;;;6.80;2.13;;;;;;;;;;6239485;28;20854;-68
2023/10/27 11:41:14;;;;;;;4.07;1.65;;;;;;;;;;6230933;28;20558;-69
2023/10/27 11:44:17;;;;;;;3.58;1.10;;;;;;;;;;6238884;28;20424;-69
2023/10/27 11:47:19;;;;;;;3.40;1.10;;;;;;;;;;6240188;28;20131;-69
2023/10/27 11:50:21;;;;;;;3.22;2.67;;;;;;;;;;6235874;28;20446;-69
2023/10/27 11:53:23;;;;;;;3.00;1.23;;;;;;;;;;6239365;28;20049;-69
2023/10/27 11:56:25;;;;;;;4.68;1.95;;;;;;;;;;6240330;28;20042;-69
2023/10/27 11:59:29;;;;;;;7.00;1.83;;;;;;;;;;6238346;28;20534;-68
2023/10/27 12:02:31;;;;;;;4.82;1.58;;;;;;;;;;6239296;28;20083;-69
2023/10/27 12:05:34;;;;;;;7.93;0.98;;;;;;;;;;6235317;28;20159;-68
2023/10/27 12:08:36;;;;;;;6.50;2.78;;;;;;;;;;6231299;28;20720;-69
2023/10/27 12:11:41;;;;;;;3.28;1.98;;;;;;;;;;6221506;28;20048;-69
2023/10/27 12:14:43;;;;;;;;;;;;;;;;;;6231410;28;20551;-69
2023/10/27 12:17:46;;;;;;;4.75;2.55;;;;;;;;;;6239723;28;19925;-69
2023/10/27 12:20:52;;;;;;;6.88;2.20;;;;;;;;;;6239889;28;20038;-69
2023/10/27 12:23:54;;;;;;;2.88;1.45;;;;;;;;;;6226936;28;20053;-69
2023/10/27 12:26:56;;;;;;;5.03;2.60;;;;;;;;;;6238731;28;20073;-69
2023/10/27 12:29:58;;;;;;;4.97;2.40;;;;;;;;;;6238831;28;20045;-69
2023/10/27 12:33:03;;;;;;;8.68;2.08;;;;;;;;;;6235859;28;20454;-69
2023/10/27 12:36:07;;;;;;;5.28;2.08;;;;;;;;;;6235764;28;20049;-69
2023/10/27 12:39:09;;;;;;;4.05;2.25;;;;;;;;;;6235525;28;20056;-69
2023/10/27 12:42:13;;;;;;;4.82;2.58;;;;;;;;;;6238937;28;20438;-69
2023/10/27 12:45:15;;;;;;;5.88;2.90;;;;;;;;;;6232631;28;20127;-69
2023/10/27 12:48:17;;;;;;;6.57;1.42;;;;;;;;;;6239222;28;20041;-68
2023/10/27 12:51:19;;;;;;;10.65;2.78;;;;;;;;;;6238433;28;20637;-69
2023/10/27 12:54:21;;;;;;;4.80;0.80;;;;;;;;;;6236274;28;20563;-69
2023/10/27 12:57:23;;;;;;;4.32;1.33;;;;;;;;;;6237831;28;20049;-69
2023/10/27 13:00:30;;;;;;;7.88;2.28;;;;;;;;;;6238689;28;20034;-69
2023/10/27 13:03:32;;;;;;;4.90;2.15;;;;;;;;;;6238593;28;20060;-70
2023/10/27 13:06:37;;;;;;;4.10;2.50;;;;;;;;;;6237876;28;20553;-69
2023/10/27 13:09:39;;;;;;;5.32;2.05;;;;;;;;;;6238162;28;20135;-67
2023/10/27 13:12:41;;;;;;;4.68;1.23;;;;;;;;;;6236002;28;20430;-68
2023/10/27 13:15:43;;;;;;;6.80;4.18;;;;;;;;;;6232866;28;20049;-69
2023/10/27 13:18:45;;;;;;;6.78;2.90;;;;;;;;;;6229754;28;20052;-70
2023/10/27 13:21:47;;;;;;;4.47;2.40;;;;;;;;;;6233596;28;20041;-69
2023/10/27 13:24:49;;;;;;;6.78;2.15;;;;;;;;;;6236478;28;20044;-68
2023/10/27 13:27:52;;;;;;;8.27;3.65;;;;;;;;;;6235694;28;20425;-69
2023/10/27 13:30:55;;;;;;;4.18;2.30;;;;;;;;;;6234266;28;20044;-69
2023/10/27 13:33:58;;;;;;;4.38;3.13;;;;;;;;;;6232053;28;20179;-71
2023/10/27 13:37:02;;;;;;;6.45;4.22;;;;;;;;;;6226597;28;20057;-69
2023/10/27 13:40:04;;;;;;;8.63;3.72;;;;;;;;;;6231312;28;20045;-69
2023/10/27 13:43:06;;;;;;;5.03;3.45;;;;;;;;;;6230603;28;20119;-70
2023/10/27 13:46:08;;;;;;;6.80;4.05;;;;;;;;;;6214238;28;20722;-70
2023/10/27 13:49:10;;;;;;;15.95;6.07;;;;;;;;;;6234835;28;20143;-69
2023/10/27 13:52:12;;;;;;;4.75;2.00;;;;;;;;;;6234695;28;20084;-70
2023/10/27 13:55:14;;;;;;;4.30;1.50;;;;;;;;;;6230384;28;20064;-69
2023/10/27 13:58:16;;;;;;;7.45;1.67;;;;;;;;;;6235296;28;20485;-69
2023/10/27 14:01:23;;;;;;;12.70;3.45;;;;;;;;;;6234722;28;20577;-69
2023/10/27 14:04:25;;;;;;;5.43;2.33;;;;;;;;;;6234871;28;20045;-70
2023/10/27 14:07:28;;;;;;;10.32;4.97;;;;;;;;;;6233543;28;20552;-69
2023/10/27 14:10:30;;;;;;;6.82;3.25;;;;;;;;;;6231345;28;20743;-70
2023/10/27 14:13:33;;;;;;;5.43;4.15;;;;;;;;;;6230345;28;20130;-70
2023/10/27 14:16:38;;;;;;;5.53;1.13;;;;;;;;;;6229577;28;20809;-70
2023/10/27 14:19:40;;;;;;;8.80;1.30;;;;;;;;;;6237119;28;20080;-70
2023/10/27 14:22:44;;;;;;;4.35;1.45;;;;;;;;;;6236036;28;20041;-70
2023/10/27 14:25:46;;;;;;;9.93;3.45;;;;;;;;;;6227635;28;20052;-69
2023/10/27 14:28:48;;;;;;;11.27;5.18;;;;;;;;;;6231096;28;20044;-70
2023/10/27 14:31:50;;;;;;;7.78;2.53;;;;;;;;;;6234877;28;20033;-68
2023/10/27 14:34:52;;;;;;;9.02;4.85;;;;;;;;;;6235013;28;20057;-70
2023/10/27 14:37:55;;;;;;;9.23;4.25;;;;;;;;;;6230696;28;20057;-69
2023/10/27 14:40:59;;;;;;;18.40;6.82;;;;;;;;;;6226260;28;20045;-70
2023/10/27 14:44:01;;;;;;;7.03;2.70;;;;;;;;;;6234359;28;20049;-70
2023/10/27 14:47:03;;;;;;;7.57;4.25;;;;;;;;;;6233315;28;20050;-70
2023/10/27 14:50:05;;;;;;;10.70;4.25;;;;;;;;;;6237587;28;20885;-70
2023/10/27 14:53:07;;;;;;;6.32;2.42;;;;;;;;;;6220012;28;20061;-70
2023/10/27 14:56:10;;;;;;;7.60;1.38;;;;;;;;;;6240178;28;20033;-70
2023/10/27 14:59:12;;;;;;;5.70;2.35;;;;;;;;;;6239459;28;20049;-71
2023/10/27 15:02:16;;;;;;;6.70;1.40;;;;;;;;;;6240961;28;20053;-70
2023/10/27 15:05:22;;;;;;;8.40;1.48;;;;;;;;;;6237427;28;20080;-70
2023/10/27 15:08:26;;;;;;;5.97;1.80;;;;;;;;;;6239234;28;20052;-71
2023/10/27 15:11:28;;;;;;;2.83;2.55;;;;;;;;;;6233869;28;20045;-69
2023/10/27 15:14:30;;;;;;;6.05;3.05;;;;;;;;;;6240223;28;20064;-70
2023/10/27 15:17:32;;;;;;;7.60;1.63;;;;;;;;;;6228530;28;20046;-70
2023/10/27 15:20:38;;;;;;;4.93;2.70;;;;;;;;;;6233451;28;20045;-75
2023/10/27 15:23:40;;;;;;;4.13;1.05;;;;;;;;;;6216227;28;20049;-67
2023/10/27 15:26:42;;;;;;;4.03;2.60;;;;;;;;;;6232783;28;20175;-67
2023/10/27 15:29:44;;;;;;;5.47;1.25;;;;;;;;;;6238218;28;20049;-66
2023/10/27 15:32:46;;;;;;;7.32;1.55;;;;;;;;;;6239223;28;20121;-67
2023/10/27 15:35:48;;;;;;;4.03;0.88;;;;;;;;;;6233937;28;20053;-67
2023/10/27 15:38:57;;;;;;;4.60;1.38;;;;;;;;;;6230692;28;20053;-72
2023/10/27 15:41:59;;;;;;;4.88;2.58;;;;;;;;;;6228596;28;20084;-72
2023/10/27 15:45:01;;;;;;;7.03;3.25;;;;;;;;;;6233410;28;20750;-72
2023/10/27 15:48:04;;;;;;;5.50;2.97;;;;;;;;;;6232570;28;20045;-72
2023/10/27 15:51:06;;;;;;;6.57;2.30;;;;;;;;;;6235648;28;20056;-72
2023/10/27 15:54:08;;;;;;;4.40;2.60;;;;;;;;;;6237578;28;20120;-71
2023/10/27 15:57:11;;;;;;;6.95;6.32;;;;;;;;;;6233779;28;20041;-71
2023/10/27 16:00:14;;;;;;;6.32;4.43;;;;;;;;;;6235006;28;20045;-71
2023/10/27 16:03:17;;;;;;;4.13;1.08;;;;;;;;;;6237910;28;20042;-70
2023/10/27 16:06:20;;;;;;;5.03;2.63;;;;;;;;;;6235164;28;20049;-67
2023/10/27 16:09:22;;;;;;;4.55;2.95;;;;;;;;;;6230640;28;20049;-70
2023/10/27 16:12:41;;;;;;;7.63;6.88;;;;;;;;;;6223182;28;20114;-70
2023/10/27 16:15:43;;;;;;;4.03;1.58;;;;;;;;;;6223428;28;20118;-64
2023/10/27 16:18:47;;;;;;;10.20;1.20;;;;;;;;;;6220231;28;20050;-66
2023/10/27 16:21:51;;;;;;;4.32;2.75;;;;;;;;;;6236437;28;20127;-67
2023/10/27 16:24:53;;;;;;;5.65;1.20;;;;;;;;;;6230175;28;20049;-68
2023/10/27 16:27:55;;;;;;;5.30;1.30;;;;;;;;;;6237174;28;20184;-67
2023/10/27 16:31:03;;;;;;;31.40;18.63;;;;;;;;;;6232969;28;20537;-68
2023/10/27 16:34:05;;;;;;;19.15;15.40;;;;;;;;;;6230398;28;20462;-68
2023/10/27 16:37:07;;;;;;;24.73;12.48;;;;;;;;;;6232922;28;20054;-68
2023/10/27 16:40:11;;;;;;;26.33;12.25;;;;;;;;;;6235073;28;20056;-68
2023/10/27 16:43:12;;;;;;;12.77;7.07;;;;;;;;;;6217536;28;20038;-68
2023/10/27 16:46:14;;;;;;;6.88;2.67;;;;;;;;;;6230985;28;20608;-68
2023/10/27 16:49:16;;;;;;;6.15;2.83;;;;;;;;;;6235079;28;20047;-67
2023/10/27 16:52:18;;;;;;;5.65;2.30;;;;;;;;;;6234548;28;20182;-68
2023/10/27 16:55:20;;;;;;;9.32;4.72;;;;;;;;;;6229877;28;20064;-68
2023/10/27 16:58:22;;;;;;;6.63;3.22;;;;;;;;;;6232758;28;20056;-68
2023/10/27 17:01:24;;;;;;;11.57;5.90;;;;;;;;;;6230028;28;20183;-67
2023/10/27 17:04:29;;;;;;;8.05;3.42;;;;;;;;;;6233628;28;20758;-67
2023/10/27 17:07:31;;;;;;;5.50;3.47;;;;;;;;;;6233604;28;20512;-67
2023/10/27 17:10:33;;;;;;;10.77;1.48;;;;;;;;;;6233437;28;20048;-67
2023/10/27 17:13:37;;;;;;;8.23;2.17;;;;;;;;;;6234045;28;20884;-66
2023/10/27 17:16:41;;;;;;;5.30;1.95;;;;;;;;;;6234157;28;20068;-66
2023/10/27 17:19:43;;;;;;;5.97;3.35;;;;;;;;;;6232247;28;20041;-66
2023/10/27 17:22:46;;;;;;;5.07;2.03;;;;;;;;;;6227863;28;20138;-66
2023/10/27 17:25:48;;;;;;;7.35;2.25;;;;;;;;;;6236019;28;20124;-65
2023/10/27 17:28:50;;;;;;;8.38;5.82;;;;;;;;;;6237935;28;20037;-65
2023/10/27 17:31:52;;;;;;;5.75;3.25;;;;;;;;;;6221614;28;20506;-67
2023/10/27 17:34:56;;;;;;;6.20;1.50;;;;;;;;;;6226685;28;20052;-66
2023/10/27 17:37:58;;;;;;;5.88;2.50;;;;;;;;;;6229523;28;20068;-67
2023/10/27 17:41:00;;;;;;;6.88;1.80;;;;;;;;;;6235751;28;20052;-67
2023/10/27 17:44:07;;;;;;;6.70;4.40;;;;;;;;;;6233584;28;20072;-67
2023/10/27 17:47:09;;;;;;;5.65;3.75;;;;;;;;;;6227049;28;20813;-67
2023/10/27 17:50:13;;;;;;;7.32;1.52;;;;;;;;;;6215839;28;20053;-67
2023/10/27 17:53:15;;;;;;;5.45;1.70;;;;;;;;;;6234057;28;20122;-66
2023/10/27 17:56:17;;;;;;;8.35;1.52;;;;;;;;;;6234209;28;20045;-66
2023/10/27 17:59:19;;;;;;;8.32;2.95;;;;;;;;;;6233856;28;20045;-67
2023/10/27 18:02:22;;;;;;;4.10;1.38;;;;;;;;;;6227259;28;20048;-66
2023/10/27 18:05:24;;;;;;;4.35;3.10;;;;;;;;;;6228422;28;20042;-67
2023/10/27 18:08:28;;;;;;;6.40;1.73;;;;;;;;;;6235955;28;20110;-66
2023/10/27 18:11:30;;;;;;;6.35;2.08;;;;;;;;;;6233784;28;20134;-67
2023/10/27 18:14:34;;;;;;;6.90;1.33;;;;;;;;;;6232666;28;20055;-65